Airfield :
LOGIN :

Register | Disclaimer

   EN    FR    IT 

 










Legend :    VFR   Marginal VFR   IFR   Intensive IFR   Very Intensive IFR
Visi :
Ceiling :
>= 8 km
>= 3000ft
5 to 8 km
1000 to 3000 ft
1500m to 5 km
500 to 1000 ft
800 to 1500m
200 to 500 ft
< 800m
< 200 ft
Symbols :   Thunderstorms  Fog  Heavy snow  Heavy precipitations  Wind > 20 kt
SIGMETs :     Misc.  Thunderstorms  Icing  Turbulence  Mountain Waves  Volcanic Ashes







- Airport Elevation : 1830 ft


EBLB - Butgenbach Elsenborn

CURRENT METAR :
  • 240925Z AUTO 31008KT 9999 FEW029/// BKN071/// 16/09 Q1025 BLU

EXPIRED METARs :
  • 240913Z AUTO 31007KT 9999 FEW026/// SCT029/// 16/09 Q1025 BLU
  • 240855Z AUTO 31007KT 9999 BKN022/// BKN053/// 16/08 Q1026 WHT
  • 240833Z AUTO 30005KT 9999 FEW017/// BKN021/// BKN084/// 15/09 Q1026 WHT
  • 240825Z AUTO 32006KT 9999 FEW017/// BKN084/// 16/10 Q1026 BLU
  • 240755Z AUTO 30006KT 9999 BKN016/// 14/10 Q1026 WHT
  • 240725Z AUTO 29005KT 9999 BKN015/// 14/10 Q1025 WHT
  • 240718Z AUTO 27004KT 9999 BKN015/// 13/09 Q1025 WHT
  • 240655Z AUTO 25004KT 9999 BKN013/// 13/09 Q1025 GRN

Expired Forecast.
No reported NOTAMs for that airfield.



MET'MAP, your aeronautical weather chart ! - Copyright ORBIFLY December 2007 - Disclaimer

ORBIFLY MET'MAP TEAM :

Programming & Development : Alexandra Zaïnal
Concept & Development : Baudouin d'Aumeries
Co-Development & Prog : Marc-Olivier Méhu
Technical & hardware support : Manuel Goepfert

Contact : metmap@orbifly.com




SOURCES & CREDITS :

   NOAA